sensor_id;sensor_type;location;lat;lon;timestamp;temperature;humidity
27200;DHT22;14714;48.106;11.546;2023-08-21T00:00:55;18.50;99.90
27200;DHT22;14714;48.106;11.546;2023-08-21T00:03:22;18.50;99.90
27200;DHT22;14714;48.106;11.546;2023-08-21T00:05:49;18.50;99.90
27200;DHT22;14714;48.106;11.546;2023-08-21T00:08:15;18.40;99.90
27200;DHT22;14714;48.106;11.546;2023-08-21T00:10:42;18.40;99.90
27200;DHT22;14714;48.106;11.546;2023-08-21T00:13:09;18.40;99.90
27200;DHT22;14714;48.106;11.546;2023-08-21T00:15:37;18.30;99.90
27200;DHT22;14714;48.106;11.546;2023-08-21T00:18:04;18.30;99.90
27200;DHT22;14714;48.106;11.546;2023-08-21T00:20:31;18.20;99.90
27200;DHT22;14714;48.106;11.546;2023-08-21T00:22:58;18.20;99.90
27200;DHT22;14714;48.106;11.546;2023-08-21T00:25:25;18.20;99.90
27200;DHT22;14714;48.106;11.546;2023-08-21T00:27:52;18.20;99.90
27200;DHT22;14714;48.106;11.546;2023-08-21T00:30:18;18.20;99.90
27200;DHT22;14714;48.106;11.546;2023-08-21T00:32:45;18.20;99.90
27200;DHT22;14714;48.106;11.546;2023-08-21T00:35:12;18.20;99.90
27200;DHT22;14714;48.106;11.546;2023-08-21T00:37:39;18.20;99.90
27200;DHT22;14714;48.106;11.546;2023-08-21T00:40:06;18.10;99.90
27200;DHT22;14714;48.106;11.546;2023-08-21T00:42:33;18.10;99.90
27200;DHT22;14714;48.106;11.546;2023-08-21T00:45:00;18.00;99.90
27200;DHT22;14714;48.106;11.546;2023-08-21T00:47:26;18.00;99.90
27200;DHT22;14714;48.106;11.546;2023-08-21T00:49:53;18.00;99.90
27200;DHT22;14714;48.106;11.546;2023-08-21T00:52:20;18.00;99.90
27200;DHT22;14714;48.106;11.546;2023-08-21T00:54:47;18.00;99.90
27200;DHT22;14714;48.106;11.546;2023-08-21T00:57:14;17.90;99.90
27200;DHT22;14714;48.106;11.546;2023-08-21T00:59:41;17.90;99.90
27200;DHT22;14714;48.106;11.546;2023-08-21T01:02:07;17.90;99.90
27200;DHT22;14714;48.106;11.546;2023-08-21T01:04:34;17.90;99.90
27200;DHT22;14714;48.106;11.546;2023-08-21T01:07:01;17.80;99.90
27200;DHT22;14714;48.106;11.546;2023-08-21T01:09:30;17.80;99.90
27200;DHT22;14714;48.106;11.546;2023-08-21T01:12:00;17.80;99.90
27200;DHT22;14714;48.106;11.546;2023-08-21T01:15:13;17.80;99.90
27200;DHT22;14714;48.106;11.546;2023-08-21T01:17:20;17.70;99.90
27200;DHT22;14714;48.106;11.546;2023-08-21T01:19:49;17.70;99.90
27200;DHT22;14714;48.106;11.546;2023-08-21T01:22:16;17.70;99.90
27200;DHT22;14714;48.106;11.546;2023-08-21T01:24:43;17.70;99.90
27200;DHT22;14714;48.106;11.546;2023-08-21T01:27:10;17.70;99.90
27200;DHT22;14714;48.106;11.546;2023-08-21T01:29:38;17.60;99.90
27200;DHT22;14714;48.106;11.546;2023-08-21T01:32:09;17.70;99.90
27200;DHT22;14714;48.106;11.546;2023-08-21T01:34:40;17.60;99.90
27200;DHT22;14714;48.106;11.546;2023-08-21T01:37:07;17.70;99.90
27200;DHT22;14714;48.106;11.546;2023-08-21T01:39:34;17.60;99.90
27200;DHT22;14714;48.106;11.546;2023-08-21T01:42:01;17.60;99.90
27200;DHT22;14714;48.106;11.546;2023-08-21T01:44:31;17.60;99.90
27200;DHT22;14714;48.106;11.546;2023-08-21T01:46:58;17.50;99.90
27200;DHT22;14714;48.106;11.546;2023-08-21T01:49:25;17.50;99.90
27200;DHT22;14714;48.106;11.546;2023-08-21T01:51:51;17.50;99.90
27200;DHT22;14714;48.106;11.546;2023-08-21T01:54:18;17.50;99.90
27200;DHT22;14714;48.106;11.546;2023-08-21T01:56:45;17.50;99.90
27200;DHT22;14714;48.106;11.546;2023-08-21T01:59:12;17.50;99.90
27200;DHT22;14714;48.106;11.546;2023-08-21T02:01:38;17.40;99.90
27200;DHT22;14714;48.106;11.546;2023-08-21T02:04:05;17.50;99.90
27200;DHT22;14714;48.106;11.546;2023-08-21T02:06:32;17.40;99.90
27200;DHT22;14714;48.106;11.546;2023-08-21T02:08:59;17.40;99.90
27200;DHT22;14714;48.106;11.546;2023-08-21T02:11:25;17.40;99.90
27200;DHT22;14714;48.106;11.546;2023-08-21T02:13:52;17.30;99.90
27200;DHT22;14714;48.106;11.546;2023-08-21T02:16:19;17.30;99.90
27200;DHT22;14714;48.106;11.546;2023-08-21T02:18:48;17.30;99.90
27200;DHT22;14714;48.106;11.546;2023-08-21T02:21:14;17.30;99.90
27200;DHT22;14714;48.106;11.546;2023-08-21T02:23:41;17.30;99.90
27200;DHT22;14714;48.106;11.546;2023-08-21T02:26:08;17.20;99.90
27200;DHT22;14714;48.106;11.546;2023-08-21T02:28:35;17.20;99.90
27200;DHT22;14714;48.106;11.546;2023-08-21T02:31:02;17.30;99.90
27200;DHT22;14714;48.106;11.546;2023-08-21T02:33:29;17.20;99.90
27200;DHT22;14714;48.106;11.546;2023-08-21T02:35:55;17.20;99.90
27200;DHT22;14714;48.106;11.546;2023-08-21T02:38:22;17.20;99.90
27200;DHT22;14714;48.106;11.546;2023-08-21T02:40:49;17.20;99.90
27200;DHT22;14714;48.106;11.546;2023-08-21T02:43:16;17.10;99.90
27200;DHT22;14714;48.106;11.546;2023-08-21T02:45:43;17.10;99.90
27200;DHT22;14714;48.106;11.546;2023-08-21T02:48:10;17.10;99.90
27200;DHT22;14714;48.106;11.546;2023-08-21T02:50:36;17.10;99.90
27200;DHT22;14714;48.106;11.546;2023-08-21T02:53:03;17.10;99.90
27200;DHT22;14714;48.106;11.546;2023-08-21T02:55:30;17.00;99.90
27200;DHT22;14714;48.106;11.546;2023-08-21T02:57:57;17.00;99.90
27200;DHT22;14714;48.106;11.546;2023-08-21T03:00:24;17.00;99.90
27200;DHT22;14714;48.106;11.546;2023-08-21T03:02:51;17.00;99.90
27200;DHT22;14714;48.106;11.546;2023-08-21T03:05:18;17.00;99.90
27200;DHT22;14714;48.106;11.546;2023-08-21T03:07:44;17.00;99.90
27200;DHT22;14714;48.106;11.546;2023-08-21T03:10:11;16.90;99.90
27200;DHT22;14714;48.106;11.546;2023-08-21T03:12:38;16.90;99.90
27200;DHT22;14714;48.106;11.546;2023-08-21T03:15:05;16.90;99.90
27200;DHT22;14714;48.106;11.546;2023-08-21T03:17:33;16.90;99.90
27200;DHT22;14714;48.106;11.546;2023-08-21T03:19:59;16.90;99.90
27200;DHT22;14714;48.106;11.546;2023-08-21T03:22:26;16.90;99.90
27200;DHT22;14714;48.106;11.546;2023-08-21T03:24:53;16.90;99.90
27200;DHT22;14714;48.106;11.546;2023-08-21T03:27:20;16.90;99.90
27200;DHT22;14714;48.106;11.546;2023-08-21T03:29:46;16.90;99.90
27200;DHT22;14714;48.106;11.546;2023-08-21T03:32:16;16.80;99.90
27200;DHT22;14714;48.106;11.546;2023-08-21T03:34:44;16.80;99.90
27200;DHT22;14714;48.106;11.546;2023-08-21T03:37:10;16.80;99.90
27200;DHT22;14714;48.106;11.546;2023-08-21T03:39:37;16.80;99.90
27200;DHT22;14714;48.106;11.546;2023-08-21T03:42:05;16.80;99.90
27200;DHT22;14714;48.106;11.546;2023-08-21T03:44:32;16.80;99.90
27200;DHT22;14714;48.106;11.546;2023-08-21T03:47:00;16.80;99.90
27200;DHT22;14714;48.106;11.546;2023-08-21T03:49:27;16.80;99.90
27200;DHT22;14714;48.106;11.546;2023-08-21T03:51:53;16.80;99.90
27200;DHT22;14714;48.106;11.546;2023-08-21T03:54:20;16.70;99.90
27200;DHT22;14714;48.106;11.546;2023-08-21T03:56:47;16.80;99.90
27200;DHT22;14714;48.106;11.546;2023-08-21T03:59:14;16.70;99.90
27200;DHT22;14714;48.106;11.546;2023-08-21T04:01:40;16.70;99.90
27200;DHT22;14714;48.106;11.546;2023-08-21T04:04:07;16.70;99.90
27200;DHT22;14714;48.106;11.546;2023-08-21T04:06:34;16.70;99.90
27200;DHT22;14714;48.106;11.546;2023-08-21T04:09:01;16.70;99.90
27200;DHT22;14714;48.106;11.546;2023-08-21T04:11:28;16.70;99.90
27200;DHT22;14714;48.106;11.546;2023-08-21T04:13:55;16.70;99.90
27200;DHT22;14714;48.106;11.546;2023-08-21T04:16:22;16.70;99.90
27200;DHT22;14714;48.106;11.546;2023-08-21T04:18:49;16.70;99.90
27200;DHT22;14714;48.106;11.546;2023-08-21T04:21:16;16.70;99.90
27200;DHT22;14714;48.106;11.546;2023-08-21T04:23:43;16.70;99.90
27200;DHT22;14714;48.106;11.546;2023-08-21T04:26:10;16.70;99.90
27200;DHT22;14714;48.106;11.546;2023-08-21T04:28:37;16.70;99.90
27200;DHT22;14714;48.106;11.546;2023-08-21T04:31:04;16.80;99.90
27200;DHT22;14714;48.106;11.546;2023-08-21T04:33:32;16.80;99.90
27200;DHT22;14714;48.106;11.546;2023-08-21T04:35:58;16.80;99.90
27200;DHT22;14714;48.106;11.546;2023-08-21T04:38:25;16.80;99.90
27200;DHT22;14714;48.106;11.546;2023-08-21T04:40:52;16.80;99.90
27200;DHT22;14714;48.106;11.546;2023-08-21T04:43:19;16.80;99.90
27200;DHT22;14714;48.106;11.546;2023-08-21T04:45:52;16.80;99.90
27200;DHT22;14714;48.106;11.546;2023-08-21T04:48:21;16.80;99.90
27200;DHT22;14714;48.106;11.546;2023-08-21T04:50:48;16.90;99.90
27200;DHT22;14714;48.106;11.546;2023-08-21T04:53:15;16.90;99.90
27200;DHT22;14714;48.106;11.546;2023-08-21T04:55:42;17.00;99.90
27200;DHT22;14714;48.106;11.546;2023-08-21T04:58:09;17.10;99.90
27200;DHT22;14714;48.106;11.546;2023-08-21T05:00:36;17.10;99.90
27200;DHT22;14714;48.106;11.546;2023-08-21T05:03:03;17.20;99.90
27200;DHT22;14714;48.106;11.546;2023-08-21T05:05:30;17.20;99.90
27200;DHT22;14714;48.106;11.546;2023-08-21T05:07:57;17.30;99.90
27200;DHT22;14714;48.106;11.546;2023-08-21T05:10:24;17.40;99.90
27200;DHT22;14714;48.106;11.546;2023-08-21T05:12:50;17.50;99.90
27200;DHT22;14714;48.106;11.546;2023-08-21T05:15:17;17.50;99.90
27200;DHT22;14714;48.106;11.546;2023-08-21T05:17:44;17.60;99.90
27200;DHT22;14714;48.106;11.546;2023-08-21T05:20:11;17.70;99.90
27200;DHT22;14714;48.106;11.546;2023-08-21T05:22:40;17.90;99.90
27200;DHT22;14714;48.106;11.546;2023-08-21T05:25:07;18.20;99.90
27200;DHT22;14714;48.106;11.546;2023-08-21T05:27:34;18.50;99.90
27200;DHT22;14714;48.106;11.546;2023-08-21T05:30:01;18.80;99.90
27200;DHT22;14714;48.106;11.546;2023-08-21T05:32:28;19.30;99.90
27200;DHT22;14714;48.106;11.546;2023-08-21T05:34:55;20.30;99.90
27200;DHT22;14714;48.106;11.546;2023-08-21T05:37:21;21.60;99.90
27200;DHT22;14714;48.106;11.546;2023-08-21T05:39:48;23.10;99.90
27200;DHT22;14714;48.106;11.546;2023-08-21T05:42:15;24.70;99.90
27200;DHT22;14714;48.106;11.546;2023-08-21T05:44:42;26.20;99.90
27200;DHT22;14714;48.106;11.546;2023-08-21T05:47:09;27.80;99.90
27200;DHT22;14714;48.106;11.546;2023-08-21T05:49:35;29.40;99.90
27200;DHT22;14714;48.106;11.546;2023-08-21T05:52:02;30.90;98.20
27200;DHT22;14714;48.106;11.546;2023-08-21T05:54:29;32.30;92.10
27200;DHT22;14714;48.106;11.546;2023-08-21T05:56:57;33.60;79.30
27200;DHT22;14714;48.106;11.546;2023-08-21T05:59:29;34.70;70.40
27200;DHT22;14714;48.106;11.546;2023-08-21T06:01:56;35.80;66.60
27200;DHT22;14714;48.106;11.546;2023-08-21T06:04:23;36.80;59.90
27200;DHT22;14714;48.106;11.546;2023-08-21T06:06:50;37.70;55.00
27200;DHT22;14714;48.106;11.546;2023-08-21T06:09:17;38.50;51.90
27200;DHT22;14714;48.106;11.546;2023-08-21T06:11:44;39.20;49.70
27200;DHT22;14714;48.106;11.546;2023-08-21T06:14:11;39.90;46.60
27200;DHT22;14714;48.106;11.546;2023-08-21T06:16:37;40.50;45.50
27200;DHT22;14714;48.106;11.546;2023-08-21T06:19:04;41.00;43.70
27200;DHT22;14714;48.106;11.546;2023-08-21T06:21:31;41.60;41.70
27200;DHT22;14714;48.106;11.546;2023-08-21T06:23:58;42.20;41.30
27200;DHT22;14714;48.106;11.546;2023-08-21T06:26:25;42.80;40.10
27200;DHT22;14714;48.106;11.546;2023-08-21T06:28:52;43.20;38.50
27200;DHT22;14714;48.106;11.546;2023-08-21T06:31:19;43.70;37.70
27200;DHT22;14714;48.106;11.546;2023-08-21T06:33:47;44.20;36.60
27200;DHT22;14714;48.106;11.546;2023-08-21T06:36:13;44.60;36.50
27200;DHT22;14714;48.106;11.546;2023-08-21T06:38:41;45.00;34.40
27200;DHT22;14714;48.106;11.546;2023-08-21T06:41:07;45.40;34.50
27200;DHT22;14714;48.106;11.546;2023-08-21T06:43:38;45.70;33.70
27200;DHT22;14714;48.106;11.546;2023-08-21T06:46:10;46.00;32.60
27200;DHT22;14714;48.106;11.546;2023-08-21T06:48:38;46.30;31.60
27200;DHT22;14714;48.106;11.546;2023-08-21T06:51:05;46.60;31.50
27200;DHT22;14714;48.106;11.546;2023-08-21T06:53:32;46.80;31.30
27200;DHT22;14714;48.106;11.546;2023-08-21T06:55:59;47.00;30.60
27200;DHT22;14714;48.106;11.546;2023-08-21T06:58:26;47.40;30.80
27200;DHT22;14714;48.106;11.546;2023-08-21T07:00:56;47.60;29.90
27200;DHT22;14714;48.106;11.546;2023-08-21T07:03:23;47.80;28.70
27200;DHT22;14714;48.106;11.546;2023-08-21T07:05:53;47.50;29.20
27200;DHT22;14714;48.106;11.546;2023-08-21T07:08:20;47.40;30.60
27200;DHT22;14714;48.106;11.546;2023-08-21T07:10:47;47.40;29.90
27200;DHT22;14714;48.106;11.546;2023-08-21T07:13:14;47.60;29.50
27200;DHT22;14714;48.106;11.546;2023-08-21T07:15:41;47.80;29.00
27200;DHT22;14714;48.106;11.546;2023-08-21T07:18:07;48.10;29.30
27200;DHT22;14714;48.106;11.546;2023-08-21T07:20:34;48.40;29.40
27200;DHT22;14714;48.106;11.546;2023-08-21T07:23:01;48.70;28.10
27200;DHT22;14714;48.106;11.546;2023-08-21T07:25:28;49.00;28.60
27200;DHT22;14714;48.106;11.546;2023-08-21T07:27:55;49.20;28.60
27200;DHT22;14714;48.106;11.546;2023-08-21T07:30:22;49.40;28.00
27200;DHT22;14714;48.106;11.546;2023-08-21T07:32:49;49.70;27.00
27200;DHT22;14714;48.106;11.546;2023-08-21T07:35:15;49.80;27.80
27200;DHT22;14714;48.106;11.546;2023-08-21T07:37:45;50.10;27.30
27200;DHT22;14714;48.106;11.546;2023-08-21T07:40:12;50.20;27.00
27200;DHT22;14714;48.106;11.546;2023-08-21T07:42:39;50.20;26.10
27200;DHT22;14714;48.106;11.546;2023-08-21T07:45:06;50.00;26.40
27200;DHT22;14714;48.106;11.546;2023-08-21T07:47:33;50.00;27.10
27200;DHT22;14714;48.106;11.546;2023-08-21T07:50:03;50.20;26.50
27200;DHT22;14714;48.106;11.546;2023-08-21T07:52:29;50.50;27.00
27200;DHT22;14714;48.106;11.546;2023-08-21T07:54:56;50.60;26.10
27200;DHT22;14714;48.106;11.546;2023-08-21T07:57:23;50.60;25.60
27200;DHT22;14714;48.106;11.546;2023-08-21T07:59:50;50.60;25.40
27200;DHT22;14714;48.106;11.546;2023-08-21T08:02:18;50.60;26.20
27200;DHT22;14714;48.106;11.546;2023-08-21T08:04:45;50.80;25.40
27200;DHT22;14714;48.106;11.546;2023-08-21T08:07:12;50.90;26.90
27200;DHT22;14714;48.106;11.546;2023-08-21T08:09:39;51.20;25.80
27200;DHT22;14714;48.106;11.546;2023-08-21T08:12:06;51.20;26.00
27200;DHT22;14714;48.106;11.546;2023-08-21T08:14:35;51.40;25.80
27200;DHT22;14714;48.106;11.546;2023-08-21T08:17:02;51.50;25.10
27200;DHT22;14714;48.106;11.546;2023-08-21T08:19:28;51.50;25.10
27200;DHT22;14714;48.106;11.546;2023-08-21T08:21:55;51.50;25.50
27200;DHT22;14714;48.106;11.546;2023-08-21T08:24:22;51.40;25.10
27200;DHT22;14714;48.106;11.546;2023-08-21T08:26:49;51.30;25.50
27200;DHT22;14714;48.106;11.546;2023-08-21T08:29:16;51.40;25.40
27200;DHT22;14714;48.106;11.546;2023-08-21T08:31:43;51.40;25.80
27200;DHT22;14714;48.106;11.546;2023-08-21T08:34:10;51.30;25.40
27200;DHT22;14714;48.106;11.546;2023-08-21T08:36:36;51.10;24.90
27200;DHT22;14714;48.106;11.546;2023-08-21T08:39:03;51.00;25.60
27200;DHT22;14714;48.106;11.546;2023-08-21T08:41:30;50.90;26.50
27200;DHT22;14714;48.106;11.546;2023-08-21T08:43:59;50.60;24.80
27200;DHT22;14714;48.106;11.546;2023-08-21T08:46:27;50.60;26.10
27200;DHT22;14714;48.106;11.546;2023-08-21T08:48:56;50.60;25.30
27200;DHT22;14714;48.106;11.546;2023-08-21T08:51:24;50.50;25.30
27200;DHT22;14714;48.106;11.546;2023-08-21T08:53:51;50.40;24.90
27200;DHT22;14714;48.106;11.546;2023-08-21T08:56:17;50.30;25.30
27200;DHT22;14714;48.106;11.546;2023-08-21T08:58:44;50.00;24.90
27200;DHT22;14714;48.106;11.546;2023-08-21T09:01:11;50.10;25.20
27200;DHT22;14714;48.106;11.546;2023-08-21T09:03:38;50.00;24.20
27200;DHT22;14714;48.106;11.546;2023-08-21T09:06:05;49.90;24.20
27200;DHT22;14714;48.106;11.546;2023-08-21T09:08:32;49.80;24.00
27200;DHT22;14714;48.106;11.546;2023-08-21T09:11:02;49.40;23.70
27200;DHT22;14714;48.106;11.546;2023-08-21T09:13:31;49.30;24.50
27200;DHT22;14714;48.106;11.546;2023-08-21T09:15:58;49.40;24.40
27200;DHT22;14714;48.106;11.546;2023-08-21T09:18:25;49.50;25.90
27200;DHT22;14714;48.106;11.546;2023-08-21T09:20:51;49.80;26.60
27200;DHT22;14714;48.106;11.546;2023-08-21T09:23:21;50.00;24.90
27200;DHT22;14714;48.106;11.546;2023-08-21T09:25:48;49.90;24.30
27200;DHT22;14714;48.106;11.546;2023-08-21T09:28:19;49.40;22.80
27200;DHT22;14714;48.106;11.546;2023-08-21T09:30:49;48.40;23.90
27200;DHT22;14714;48.106;11.546;2023-08-21T09:33:16;48.10;24.20
27200;DHT22;14714;48.106;11.546;2023-08-21T09:35:44;48.20;24.50
27200;DHT22;14714;48.106;11.546;2023-08-21T09:38:11;48.40;24.40
27200;DHT22;14714;48.106;11.546;2023-08-21T09:40:41;48.40;24.40
27200;DHT22;14714;48.106;11.546;2023-08-21T09:43:08;48.00;24.30
27200;DHT22;14714;48.106;11.546;2023-08-21T09:45:37;47.70;24.80
27200;DHT22;14714;48.106;11.546;2023-08-21T09:48:04;47.70;24.50
27200;DHT22;14714;48.106;11.546;2023-08-21T09:50:31;47.90;25.30
27200;DHT22;14714;48.106;11.546;2023-08-21T09:52:58;48.20;25.00
27200;DHT22;14714;48.106;11.546;2023-08-21T09:55:25;48.20;23.30
27200;DHT22;14714;48.106;11.546;2023-08-21T09:57:57;47.60;23.40
27200;DHT22;14714;48.106;11.546;2023-08-21T10:00:37;46.80;24.30
27200;DHT22;14714;48.106;11.546;2023-08-21T10:03:06;46.20;25.90
27200;DHT22;14714;48.106;11.546;2023-08-21T10:05:34;45.90;25.90
27200;DHT22;14714;48.106;11.546;2023-08-21T10:08:02;45.80;26.20
27200;DHT22;14714;48.106;11.546;2023-08-21T10:10:30;45.70;26.70
27200;DHT22;14714;48.106;11.546;2023-08-21T10:12:58;45.90;27.80
27200;DHT22;14714;48.106;11.546;2023-08-21T10:15:27;46.10;25.90
27200;DHT22;14714;48.106;11.546;2023-08-21T10:17:54;46.40;26.10
27200;DHT22;14714;48.106;11.546;2023-08-21T10:20:21;46.60;26.80
27200;DHT22;14714;48.106;11.546;2023-08-21T10:22:52;46.60;26.50
27200;DHT22;14714;48.106;11.546;2023-08-21T10:25:23;46.30;27.00
27200;DHT22;14714;48.106;11.546;2023-08-21T10:27:57;46.10;26.40
27200;DHT22;14714;48.106;11.546;2023-08-21T10:30:27;45.60;26.70
27200;DHT22;14714;48.106;11.546;2023-08-21T10:32:54;45.10;27.30
27200;DHT22;14714;48.106;11.546;2023-08-21T10:35:22;44.90;28.20
27200;DHT22;14714;48.106;11.546;2023-08-21T10:38:05;44.80;27.90
27200;DHT22;14714;48.106;11.546;2023-08-21T10:40:34;44.50;28.20
27200;DHT22;14714;48.106;11.546;2023-08-21T10:43:01;44.10;28.20
27200;DHT22;14714;48.106;11.546;2023-08-21T10:45:29;43.80;29.80
27200;DHT22;14714;48.106;11.546;2023-08-21T10:47:57;43.60;29.00
27200;DHT22;14714;48.106;11.546;2023-08-21T10:50:24;43.40;28.70
27200;DHT22;14714;48.106;11.546;2023-08-21T10:52:51;43.40;30.10
27200;DHT22;14714;48.106;11.546;2023-08-21T10:55:18;43.40;30.70
27200;DHT22;14714;48.106;11.546;2023-08-21T10:57:48;43.30;30.00
27200;DHT22;14714;48.106;11.546;2023-08-21T11:00:17;42.90;29.50
27200;DHT22;14714;48.106;11.546;2023-08-21T11:02:45;42.30;30.30
27200;DHT22;14714;48.106;11.546;2023-08-21T11:05:12;42.00;31.10
27200;DHT22;14714;48.106;11.546;2023-08-21T11:07:46;41.80;31.10
27200;DHT22;14714;48.106;11.546;2023-08-21T11:10:14;41.60;32.20
27200;DHT22;14714;48.106;11.546;2023-08-21T11:12:53;41.50;31.70
27200;DHT22;14714;48.106;11.546;2023-08-21T11:15:22;41.30;32.40
27200;DHT22;14714;48.106;11.546;2023-08-21T11:17:51;40.80;32.70
27200;DHT22;14714;48.106;11.546;2023-08-21T11:20:17;40.20;34.00
27200;DHT22;14714;48.106;11.546;2023-08-21T11:22:44;39.80;34.50
27200;DHT22;14714;48.106;11.546;2023-08-21T11:25:11;39.80;33.90
27200;DHT22;14714;48.106;11.546;2023-08-21T11:27:38;39.70;34.20
27200;DHT22;14714;48.106;11.546;2023-08-21T11:30:06;39.60;35.00
27200;DHT22;14714;48.106;11.546;2023-08-21T11:32:33;39.60;34.30
27200;DHT22;14714;48.106;11.546;2023-08-21T11:35:04;39.50;34.50
27200;DHT22;14714;48.106;11.546;2023-08-21T11:37:30;39.50;34.10
27200;DHT22;14714;48.106;11.546;2023-08-21T11:39:58;39.30;35.50
27200;DHT22;14714;48.106;11.546;2023-08-21T11:42:28;39.10;35.60
27200;DHT22;14714;48.106;11.546;2023-08-21T11:44:55;38.80;36.20
27200;DHT22;14714;48.106;11.546;2023-08-21T11:47:23;38.50;39.10
27200;DHT22;14714;48.106;11.546;2023-08-21T11:49:50;38.40;36.90
27200;DHT22;14714;48.106;11.546;2023-08-21T11:52:18;38.10;36.90
27200;DHT22;14714;48.106;11.546;2023-08-21T11:54:49;37.80;35.90
27200;DHT22;14714;48.106;11.546;2023-08-21T11:57:17;37.50;37.00
27200;DHT22;14714;48.106;11.546;2023-08-21T11:59:49;37.20;37.60
27200;DHT22;14714;48.106;11.546;2023-08-21T12:02:23;36.90;38.20
27200;DHT22;14714;48.106;11.546;2023-08-21T12:05:03;36.50;39.90
27200;DHT22;14714;48.106;11.546;2023-08-21T12:07:32;36.10;41.00
27200;DHT22;14714;48.106;11.546;2023-08-21T12:09:58;35.60;40.90
27200;DHT22;14714;48.106;11.546;2023-08-21T12:12:25;35.30;43.00
27200;DHT22;14714;48.106;11.546;2023-08-21T12:14:52;35.20;43.90
27200;DHT22;14714;48.106;11.546;2023-08-21T12:17:19;35.10;42.80
27200;DHT22;14714;48.106;11.546;2023-08-21T12:19:45;35.00;42.50
27200;DHT22;14714;48.106;11.546;2023-08-21T12:22:12;34.80;42.30
27200;DHT22;14714;48.106;11.546;2023-08-21T12:24:39;34.60;43.00
27200;DHT22;14714;48.106;11.546;2023-08-21T12:27:06;34.50;43.70
27200;DHT22;14714;48.106;11.546;2023-08-21T12:29:32;34.40;44.20
27200;DHT22;14714;48.106;11.546;2023-08-21T12:32:00;34.30;44.20
27200;DHT22;14714;48.106;11.546;2023-08-21T12:34:27;34.20;44.50
27200;DHT22;14714;48.106;11.546;2023-08-21T12:36:53;34.20;45.70
27200;DHT22;14714;48.106;11.546;2023-08-21T12:39:20;34.10;44.60
27200;DHT22;14714;48.106;11.546;2023-08-21T12:41:48;34.00;45.10
27200;DHT22;14714;48.106;11.546;2023-08-21T12:44:15;33.90;44.40
27200;DHT22;14714;48.106;11.546;2023-08-21T12:46:41;33.90;45.00
27200;DHT22;14714;48.106;11.546;2023-08-21T12:49:09;33.80;44.40
27200;DHT22;14714;48.106;11.546;2023-08-21T12:51:35;33.70;44.10
27200;DHT22;14714;48.106;11.546;2023-08-21T12:54:02;33.70;44.20
27200;DHT22;14714;48.106;11.546;2023-08-21T12:56:29;33.60;43.80
27200;DHT22;14714;48.106;11.546;2023-08-21T12:58:56;33.50;46.00
27200;DHT22;14714;48.106;11.546;2023-08-21T13:01:23;33.50;44.60
27200;DHT22;14714;48.106;11.546;2023-08-21T13:03:51;33.40;44.90
27200;DHT22;14714;48.106;11.546;2023-08-21T13:06:18;33.30;44.10
27200;DHT22;14714;48.106;11.546;2023-08-21T13:08:44;33.20;45.00
27200;DHT22;14714;48.106;11.546;2023-08-21T13:11:11;33.10;44.00
27200;DHT22;14714;48.106;11.546;2023-08-21T13:13:38;33.10;44.00
27200;DHT22;14714;48.106;11.546;2023-08-21T13:16:05;33.10;47.60
27200;DHT22;14714;48.106;11.546;2023-08-21T13:18:32;33.00;48.90
27200;DHT22;14714;48.106;11.546;2023-08-21T13:20:59;33.00;48.30
27200;DHT22;14714;48.106;11.546;2023-08-21T13:23:28;32.90;45.70
27200;DHT22;14714;48.106;11.546;2023-08-21T13:25:55;32.90;46.20
27200;DHT22;14714;48.106;11.546;2023-08-21T13:28:21;32.90;46.10
27200;DHT22;14714;48.106;11.546;2023-08-21T13:30:48;32.90;46.30
27200;DHT22;14714;48.106;11.546;2023-08-21T13:33:15;32.80;47.40
27200;DHT22;14714;48.106;11.546;2023-08-21T13:35:44;32.80;45.90
27200;DHT22;14714;48.106;11.546;2023-08-21T13:38:12;32.70;47.60
27200;DHT22;14714;48.106;11.546;2023-08-21T13:40:39;32.70;46.20
27200;DHT22;14714;48.106;11.546;2023-08-21T13:43:07;32.70;46.40
27200;DHT22;14714;48.106;11.546;2023-08-21T13:45:36;32.70;46.50
27200;DHT22;14714;48.106;11.546;2023-08-21T13:48:03;32.70;46.40
27200;DHT22;14714;48.106;11.546;2023-08-21T13:50:30;32.60;46.30
27200;DHT22;14714;48.106;11.546;2023-08-21T13:52:57;32.50;45.90
27200;DHT22;14714;48.106;11.546;2023-08-21T13:55:24;32.50;45.80
27200;DHT22;14714;48.106;11.546;2023-08-21T13:57:51;32.50;46.60
27200;DHT22;14714;48.106;11.546;2023-08-21T14:00:18;32.50;46.30
27200;DHT22;14714;48.106;11.546;2023-08-21T14:02:45;32.40;45.50
27200;DHT22;14714;48.106;11.546;2023-08-21T14:05:12;32.40;45.10
27200;DHT22;14714;48.106;11.546;2023-08-21T14:07:39;32.40;45.70
27200;DHT22;14714;48.106;11.546;2023-08-21T14:10:08;32.40;45.60
27200;DHT22;14714;48.106;11.546;2023-08-21T14:12:35;32.30;47.40
27200;DHT22;14714;48.106;11.546;2023-08-21T14:15:04;32.30;47.10
27200;DHT22;14714;48.106;11.546;2023-08-21T14:17:32;32.30;47.40
27200;DHT22;14714;48.106;11.546;2023-08-21T14:19:59;32.20;46.00
27200;DHT22;14714;48.106;11.546;2023-08-21T14:22:25;32.20;45.30
27200;DHT22;14714;48.106;11.546;2023-08-21T14:24:52;32.20;47.30
27200;DHT22;14714;48.106;11.546;2023-08-21T14:27:19;32.20;45.30
27200;DHT22;14714;48.106;11.546;2023-08-21T14:29:46;32.20;46.30
27200;DHT22;14714;48.106;11.546;2023-08-21T14:32:12;32.20;46.70
27200;DHT22;14714;48.106;11.546;2023-08-21T14:34:39;32.20;47.10
27200;DHT22;14714;48.106;11.546;2023-08-21T14:37:06;32.20;46.80
27200;DHT22;14714;48.106;11.546;2023-08-21T14:39:33;32.10;46.20
27200;DHT22;14714;48.106;11.546;2023-08-21T14:42:00;32.10;47.10
27200;DHT22;14714;48.106;11.546;2023-08-21T14:44:27;32.10;47.60
27200;DHT22;14714;48.106;11.546;2023-08-21T14:46:54;32.10;47.20
27200;DHT22;14714;48.106;11.546;2023-08-21T14:49:27;32.10;46.90
27200;DHT22;14714;48.106;11.546;2023-08-21T14:51:54;32.10;47.10
27200;DHT22;14714;48.106;11.546;2023-08-21T14:54:21;32.20;46.80
27200;DHT22;14714;48.106;11.546;2023-08-21T14:56:49;32.10;46.20
27200;DHT22;14714;48.106;11.546;2023-08-21T14:59:16;32.10;46.20
27200;DHT22;14714;48.106;11.546;2023-08-21T15:01:43;32.20;46.20
27200;DHT22;14714;48.106;11.546;2023-08-21T15:04:09;32.20;46.50
27200;DHT22;14714;48.106;11.546;2023-08-21T15:06:37;32.20;47.10
27200;DHT22;14714;48.106;11.546;2023-08-21T15:09:04;32.20;47.70
27200;DHT22;14714;48.106;11.546;2023-08-21T15:11:31;32.10;47.60
27200;DHT22;14714;48.106;11.546;2023-08-21T15:14:00;32.10;47.80
27200;DHT22;14714;48.106;11.546;2023-08-21T15:16:27;32.10;47.60